sensor_id;sensor_type;location;lat;lon;timestamp;temperature;humidity
3701;DHT22;1866;48.374;10.766;2023-03-05T00:02:07;0.50;1.00
3701;DHT22;1866;48.374;10.766;2023-03-05T00:04:35;0.50;1.00
3701;DHT22;1866;48.374;10.766;2023-03-05T00:07:04;0.60;1.00
3701;DHT22;1866;48.374;10.766;2023-03-05T00:09:33;0.80;1.00
3701;DHT22;1866;48.374;10.766;2023-03-05T00:12:00;0.80;1.00
3701;DHT22;1866;48.374;10.766;2023-03-05T00:14:28;0.70;1.00
3701;DHT22;1866;48.374;10.766;2023-03-05T00:16:55;0.80;1.00
3701;DHT22;1866;48.374;10.766;2023-03-05T00:19:23;0.80;1.00
3701;DHT22;1866;48.374;10.766;2023-03-05T00:21:51;0.80;1.00
3701;DHT22;1866;48.374;10.766;2023-03-05T00:24:19;0.70;1.00
3701;DHT22;1866;48.374;10.766;2023-03-05T00:26:46;0.50;1.00
3701;DHT22;1866;48.374;10.766;2023-03-05T00:29:16;0.40;1.00
3701;DHT22;1866;48.374;10.766;2023-03-05T00:31:44;0.60;1.00
3701;DHT22;1866;48.374;10.766;2023-03-05T00:34:15;0.70;1.00
3701;DHT22;1866;48.374;10.766;2023-03-05T00:36:44;0.60;1.00
3701;DHT22;1866;48.374;10.766;2023-03-05T00:39:13;0.50;1.00
3701;DHT22;1866;48.374;10.766;2023-03-05T00:41:42;0.40;1.00
3701;DHT22;1866;48.374;10.766;2023-03-05T00:44:10;0.60;1.00
3701;DHT22;1866;48.374;10.766;2023-03-05T00:46:37;0.60;1.00
3701;DHT22;1866;48.374;10.766;2023-03-05T00:49:04;0.60;1.00
3701;DHT22;1866;48.374;10.766;2023-03-05T00:51:32;0.70;1.00
3701;DHT22;1866;48.374;10.766;2023-03-05T00:54:00;0.60;1.00
3701;DHT22;1866;48.374;10.766;2023-03-05T00:56:27;0.60;1.00
3701;DHT22;1866;48.374;10.766;2023-03-05T00:58:55;0.70;1.00
3701;DHT22;1866;48.374;10.766;2023-03-05T01:01:22;0.70;1.00
3701;DHT22;1866;48.374;10.766;2023-03-05T01:03:49;0.40;1.00
3701;DHT22;1866;48.374;10.766;2023-03-05T01:06:17;0.30;1.00
3701;DHT22;1866;48.374;10.766;2023-03-05T01:08:44;0.50;1.00
3701;DHT22;1866;48.374;10.766;2023-03-05T01:11:11;0.40;1.00
3701;DHT22;1866;48.374;10.766;2023-03-05T01:13:38;0.50;1.00
3701;DHT22;1866;48.374;10.766;2023-03-05T01:16:07;0.50;1.00
3701;DHT22;1866;48.374;10.766;2023-03-05T01:18:36;0.60;1.00
3701;DHT22;1866;48.374;10.766;2023-03-05T01:21:03;0.50;1.00
3701;DHT22;1866;48.374;10.766;2023-03-05T01:23:31;0.50;1.00
3701;DHT22;1866;48.374;10.766;2023-03-05T01:25:59;0.40;1.00
3701;DHT22;1866;48.374;10.766;2023-03-05T01:28:26;0.60;1.00
3701;DHT22;1866;48.374;10.766;2023-03-05T01:30:54;0.50;1.00
3701;DHT22;1866;48.374;10.766;2023-03-05T01:33:23;0.60;1.00
3701;DHT22;1866;48.374;10.766;2023-03-05T01:35:50;0.70;1.00
3701;DHT22;1866;48.374;10.766;2023-03-05T01:38:17;0.60;1.00
3701;DHT22;1866;48.374;10.766;2023-03-05T01:40:45;0.60;1.00
3701;DHT22;1866;48.374;10.766;2023-03-05T01:43:22;0.60;1.00
3701;DHT22;1866;48.374;10.766;2023-03-05T01:46:23;0.40;1.00
3701;DHT22;1866;48.374;10.766;2023-03-05T01:48:55;0.70;1.00
3701;DHT22;1866;48.374;10.766;2023-03-05T01:51:26;0.70;1.00
3701;DHT22;1866;48.374;10.766;2023-03-05T01:53:54;0.60;1.00
3701;DHT22;1866;48.374;10.766;2023-03-05T01:56:24;0.50;1.00
3701;DHT22;1866;48.374;10.766;2023-03-05T01:58:53;0.60;1.00
3701;DHT22;1866;48.374;10.766;2023-03-05T02:01:31;0.60;1.00
3701;DHT22;1866;48.374;10.766;2023-03-05T02:04:00;0.80;1.00
3701;DHT22;1866;48.374;10.766;2023-03-05T02:06:28;0.70;1.00
3701;DHT22;1866;48.374;10.766;2023-03-05T02:08:56;0.60;1.00
3701;DHT22;1866;48.374;10.766;2023-03-05T02:11:23;0.60;1.00
3701;DHT22;1866;48.374;10.766;2023-03-05T02:13:50;0.60;1.00
3701;DHT22;1866;48.374;10.766;2023-03-05T02:16:17;0.70;1.00
3701;DHT22;1866;48.374;10.766;2023-03-05T02:18:43;0.70;1.00
3701;DHT22;1866;48.374;10.766;2023-03-05T02:21:13;0.60;1.00
3701;DHT22;1866;48.374;10.766;2023-03-05T02:23:45;0.60;1.00
3701;DHT22;1866;48.374;10.766;2023-03-05T02:26:21;0.50;1.00
3701;DHT22;1866;48.374;10.766;2023-03-05T02:28:52;0.50;1.00
3701;DHT22;1866;48.374;10.766;2023-03-05T02:31:22;0.60;1.00
3701;DHT22;1866;48.374;10.766;2023-03-05T02:33:50;0.60;1.00
3701;DHT22;1866;48.374;10.766;2023-03-05T02:36:21;0.60;1.00
3701;DHT22;1866;48.374;10.766;2023-03-05T02:38:48;0.50;1.00
3701;DHT22;1866;48.374;10.766;2023-03-05T02:41:17;0.40;1.00
3701;DHT22;1866;48.374;10.766;2023-03-05T02:43:46;0.60;1.00
3701;DHT22;1866;48.374;10.766;2023-03-05T02:46:13;0.70;1.00
3701;DHT22;1866;48.374;10.766;2023-03-05T02:48:40;0.60;1.00
3701;DHT22;1866;48.374;10.766;2023-03-05T02:51:07;0.80;1.00
3701;DHT22;1866;48.374;10.766;2023-03-05T02:53:36;0.70;1.00
3701;DHT22;1866;48.374;10.766;2023-03-05T02:56:03;0.70;1.00
3701;DHT22;1866;48.374;10.766;2023-03-05T02:58:30;0.60;1.00
3701;DHT22;1866;48.374;10.766;2023-03-05T03:01:00;0.60;1.00
3701;DHT22;1866;48.374;10.766;2023-03-05T03:03:27;0.50;1.00
3701;DHT22;1866;48.374;10.766;2023-03-05T03:05:57;0.50;1.00
3701;DHT22;1866;48.374;10.766;2023-03-05T03:08:23;0.60;1.00
3701;DHT22;1866;48.374;10.766;2023-03-05T03:10:52;0.70;1.00
3701;DHT22;1866;48.374;10.766;2023-03-05T03:13:22;0.70;1.00
3701;DHT22;1866;48.374;10.766;2023-03-05T03:15:50;0.70;1.00
3701;DHT22;1866;48.374;10.766;2023-03-05T03:18:22;0.70;1.00
3701;DHT22;1866;48.374;10.766;2023-03-05T03:20:48;0.70;1.00
3701;DHT22;1866;48.374;10.766;2023-03-05T03:23:16;0.70;1.00
3701;DHT22;1866;48.374;10.766;2023-03-05T03:25:42;0.70;1.00
3701;DHT22;1866;48.374;10.766;2023-03-05T03:28:12;0.70;1.00
3701;DHT22;1866;48.374;10.766;2023-03-05T03:30:39;0.70;1.00
3701;DHT22;1866;48.374;10.766;2023-03-05T03:33:05;0.90;1.00
3701;DHT22;1866;48.374;10.766;2023-03-05T03:35:33;0.70;1.00
3701;DHT22;1866;48.374;10.766;2023-03-05T03:38:01;0.60;1.00
3701;DHT22;1866;48.374;10.766;2023-03-05T03:40:30;0.70;1.00
3701;DHT22;1866;48.374;10.766;2023-03-05T03:42:57;0.80;1.00
3701;DHT22;1866;48.374;10.766;2023-03-05T03:45:25;0.70;1.00
3701;DHT22;1866;48.374;10.766;2023-03-05T03:47:52;0.70;1.00
3701;DHT22;1866;48.374;10.766;2023-03-05T03:50:19;0.60;1.00
3701;DHT22;1866;48.374;10.766;2023-03-05T03:52:49;0.60;1.00
3701;DHT22;1866;48.374;10.766;2023-03-05T03:55:17;0.70;1.00
3701;DHT22;1866;48.374;10.766;2023-03-05T03:57:44;0.70;1.00
3701;DHT22;1866;48.374;10.766;2023-03-05T04:00:12;0.80;1.00
3701;DHT22;1866;48.374;10.766;2023-03-05T04:02:48;0.80;1.00
3701;DHT22;1866;48.374;10.766;2023-03-05T04:05:15;0.70;1.00
3701;DHT22;1866;48.374;10.766;2023-03-05T04:07:43;0.70;1.00
3701;DHT22;1866;48.374;10.766;2023-03-05T04:10:12;0.80;1.00
3701;DHT22;1866;48.374;10.766;2023-03-05T04:12:41;0.80;1.00
3701;DHT22;1866;48.374;10.766;2023-03-05T04:15:11;0.80;1.00
3701;DHT22;1866;48.374;10.766;2023-03-05T04:17:37;0.70;1.00
3701;DHT22;1866;48.374;10.766;2023-03-05T04:20:08;0.90;1.00
3701;DHT22;1866;48.374;10.766;2023-03-05T04:22:35;0.80;1.00
3701;DHT22;1866;48.374;10.766;2023-03-05T04:25:03;0.70;1.00
3701;DHT22;1866;48.374;10.766;2023-03-05T04:27:31;0.80;1.00
3701;DHT22;1866;48.374;10.766;2023-03-05T04:30:00;0.90;1.00
3701;DHT22;1866;48.374;10.766;2023-03-05T04:32:27;0.80;1.00
3701;DHT22;1866;48.374;10.766;2023-03-05T04:34:56;0.90;1.00
3701;DHT22;1866;48.374;10.766;2023-03-05T04:37:25;0.80;1.00
3701;DHT22;1866;48.374;10.766;2023-03-05T04:39:52;0.80;1.00
3701;DHT22;1866;48.374;10.766;2023-03-05T04:42:19;0.80;1.00
3701;DHT22;1866;48.374;10.766;2023-03-05T04:44:48;0.80;1.00
3701;DHT22;1866;48.374;10.766;2023-03-05T04:47:18;0.80;1.00
3701;DHT22;1866;48.374;10.766;2023-03-05T04:49:45;0.80;1.00
3701;DHT22;1866;48.374;10.766;2023-03-05T04:52:14;0.80;1.00
3701;DHT22;1866;48.374;10.766;2023-03-05T04:54:48;0.80;1.00
3701;DHT22;1866;48.374;10.766;2023-03-05T04:57:15;0.90;1.00
3701;DHT22;1866;48.374;10.766;2023-03-05T04:59:42;0.80;1.00
3701;DHT22;1866;48.374;10.766;2023-03-05T05:02:09;0.80;1.00
3701;DHT22;1866;48.374;10.766;2023-03-05T05:04:36;0.70;1.00
3701;DHT22;1866;48.374;10.766;2023-03-05T05:07:05;0.80;1.00
3701;DHT22;1866;48.374;10.766;2023-03-05T05:09:32;0.70;1.00
3701;DHT22;1866;48.374;10.766;2023-03-05T05:12:01;0.80;1.00
3701;DHT22;1866;48.374;10.766;2023-03-05T05:14:28;0.70;1.00
3701;DHT22;1866;48.374;10.766;2023-03-05T05:16:55;0.70;1.00
3701;DHT22;1866;48.374;10.766;2023-03-05T05:19:23;0.70;1.00
3701;DHT22;1866;48.374;10.766;2023-03-05T05:21:50;0.80;1.00
3701;DHT22;1866;48.374;10.766;2023-03-05T05:24:16;0.70;1.00
3701;DHT22;1866;48.374;10.766;2023-03-05T05:26:43;0.70;1.00
3701;DHT22;1866;48.374;10.766;2023-03-05T05:29:12;0.70;1.00
3701;DHT22;1866;48.374;10.766;2023-03-05T05:31:39;0.70;1.00
3701;DHT22;1866;48.374;10.766;2023-03-05T05:34:07;0.70;1.00
3701;DHT22;1866;48.374;10.766;2023-03-05T05:36:34;0.80;1.00
3701;DHT22;1866;48.374;10.766;2023-03-05T05:39:02;0.80;1.00
3701;DHT22;1866;48.374;10.766;2023-03-05T05:41:29;0.70;1.00
3701;DHT22;1866;48.374;10.766;2023-03-05T05:43:57;0.80;1.00
3701;DHT22;1866;48.374;10.766;2023-03-05T05:46:25;0.80;1.00
3701;DHT22;1866;48.374;10.766;2023-03-05T05:48:53;0.70;1.00
3701;DHT22;1866;48.374;10.766;2023-03-05T05:51:22;0.70;1.00
3701;DHT22;1866;48.374;10.766;2023-03-05T05:53:49;0.70;1.00
3701;DHT22;1866;48.374;10.766;2023-03-05T05:56:17;0.80;1.00
3701;DHT22;1866;48.374;10.766;2023-03-05T05:58:46;0.70;1.00
3701;DHT22;1866;48.374;10.766;2023-03-05T06:01:16;0.80;1.00
3701;DHT22;1866;48.374;10.766;2023-03-05T06:03:45;0.70;1.00
3701;DHT22;1866;48.374;10.766;2023-03-05T06:06:14;0.80;1.00
3701;DHT22;1866;48.374;10.766;2023-03-05T06:08:42;0.70;1.00
3701;DHT22;1866;48.374;10.766;2023-03-05T06:11:09;0.80;1.00
3701;DHT22;1866;48.374;10.766;2023-03-05T06:13:38;0.80;1.00
3701;DHT22;1866;48.374;10.766;2023-03-05T06:16:07;0.90;1.00
3701;DHT22;1866;48.374;10.766;2023-03-05T06:18:34;0.70;1.00
3701;DHT22;1866;48.374;10.766;2023-03-05T06:21:05;0.80;1.00
3701;DHT22;1866;48.374;10.766;2023-03-05T06:23:33;0.70;1.00
3701;DHT22;1866;48.374;10.766;2023-03-05T06:26:04;0.70;1.00
3701;DHT22;1866;48.374;10.766;2023-03-05T06:28:31;0.60;1.00
3701;DHT22;1866;48.374;10.766;2023-03-05T06:31:00;0.80;1.00
3701;DHT22;1866;48.374;10.766;2023-03-05T06:33:27;0.70;1.00
3701;DHT22;1866;48.374;10.766;2023-03-05T06:35:56;0.80;1.00
3701;DHT22;1866;48.374;10.766;2023-03-05T06:38:24;0.70;1.00
3701;DHT22;1866;48.374;10.766;2023-03-05T06:40:52;0.80;1.00
3701;DHT22;1866;48.374;10.766;2023-03-05T06:43:20;0.90;1.00
3701;DHT22;1866;48.374;10.766;2023-03-05T06:45:47;0.70;1.00
3701;DHT22;1866;48.374;10.766;2023-03-05T06:48:14;0.80;1.00
3701;DHT22;1866;48.374;10.766;2023-03-05T06:50:41;0.90;1.00
3701;DHT22;1866;48.374;10.766;2023-03-05T06:53:08;0.80;1.00
3701;DHT22;1866;48.374;10.766;2023-03-05T06:55:36;1.00;1.00
3701;DHT22;1866;48.374;10.766;2023-03-05T06:58:06;1.00;1.00
3701;DHT22;1866;48.374;10.766;2023-03-05T07:00:34;0.90;1.00
3701;DHT22;1866;48.374;10.766;2023-03-05T07:03:02;0.80;1.00
3701;DHT22;1866;48.374;10.766;2023-03-05T07:05:29;1.00;1.00
3701;DHT22;1866;48.374;10.766;2023-03-05T07:07:56;1.00;1.00
3701;DHT22;1866;48.374;10.766;2023-03-05T07:10:23;1.00;1.00
3701;DHT22;1866;48.374;10.766;2023-03-05T07:12:51;0.90;1.00
3701;DHT22;1866;48.374;10.766;2023-03-05T07:15:19;0.90;1.00
3701;DHT22;1866;48.374;10.766;2023-03-05T07:17:46;1.00;1.00
3701;DHT22;1866;48.374;10.766;2023-03-05T07:20:13;1.00;1.00
3701;DHT22;1866;48.374;10.766;2023-03-05T07:22:41;1.10;1.00
3701;DHT22;1866;48.374;10.766;2023-03-05T07:25:08;1.10;1.00
3701;DHT22;1866;48.374;10.766;2023-03-05T07:27:36;1.10;1.00
3701;DHT22;1866;48.374;10.766;2023-03-05T07:30:06;1.00;1.00
3701;DHT22;1866;48.374;10.766;2023-03-05T07:32:34;1.10;1.00
3701;DHT22;1866;48.374;10.766;2023-03-05T07:35:02;1.20;1.00
3701;DHT22;1866;48.374;10.766;2023-03-05T07:37:30;1.10;1.00
3701;DHT22;1866;48.374;10.766;2023-03-05T07:39:58;1.20;1.00
3701;DHT22;1866;48.374;10.766;2023-03-05T07:42:24;1.20;1.00
3701;DHT22;1866;48.374;10.766;2023-03-05T07:44:59;1.20;1.00
3701;DHT22;1866;48.374;10.766;2023-03-05T07:47:27;1.20;1.00
3701;DHT22;1866;48.374;10.766;2023-03-05T07:49:55;1.20;1.00
3701;DHT22;1866;48.374;10.766;2023-03-05T07:52:22;1.20;1.00
3701;DHT22;1866;48.374;10.766;2023-03-05T07:54:50;1.30;1.00
3701;DHT22;1866;48.374;10.766;2023-03-05T07:57:24;1.20;1.00
3701;DHT22;1866;48.374;10.766;2023-03-05T07:59:51;1.30;1.00
3701;DHT22;1866;48.374;10.766;2023-03-05T08:02:19;1.40;1.00
3701;DHT22;1866;48.374;10.766;2023-03-05T08:04:49;1.40;1.00
3701;DHT22;1866;48.374;10.766;2023-03-05T08:07:16;1.40;1.00
3701;DHT22;1866;48.374;10.766;2023-03-05T08:09:44;1.40;1.00
3701;DHT22;1866;48.374;10.766;2023-03-05T08:12:12;1.40;1.00
3701;DHT22;1866;48.374;10.766;2023-03-05T08:14:39;1.40;1.00
3701;DHT22;1866;48.374;10.766;2023-03-05T08:17:06;1.40;1.00
3701;DHT22;1866;48.374;10.766;2023-03-05T08:19:33;1.40;1.00
3701;DHT22;1866;48.374;10.766;2023-03-05T08:22:04;1.50;1.00
3701;DHT22;1866;48.374;10.766;2023-03-05T08:24:31;1.60;1.00
3701;DHT22;1866;48.374;10.766;2023-03-05T08:27:00;1.60;1.00
3701;DHT22;1866;48.374;10.766;2023-03-05T08:29:27;1.50;1.00
3701;DHT22;1866;48.374;10.766;2023-03-05T08:31:55;1.60;1.00
3701;DHT22;1866;48.374;10.766;2023-03-05T08:34:27;1.50;1.00
3701;DHT22;1866;48.374;10.766;2023-03-05T08:36:54;1.60;1.00
3701;DHT22;1866;48.374;10.766;2023-03-05T08:39:23;1.60;1.00
3701;DHT22;1866;48.374;10.766;2023-03-05T08:41:50;1.60;1.00
3701;DHT22;1866;48.374;10.766;2023-03-05T08:44:18;1.60;1.00
3701;DHT22;1866;48.374;10.766;2023-03-05T08:46:45;1.60;1.00
3701;DHT22;1866;48.374;10.766;2023-03-05T08:49:14;1.60;1.00
3701;DHT22;1866;48.374;10.766;2023-03-05T08:51:42;1.70;1.00
3701;DHT22;1866;48.374;10.766;2023-03-05T08:54:09;1.70;1.00
3701;DHT22;1866;48.374;10.766;2023-03-05T08:56:37;1.70;1.00
3701;DHT22;1866;48.374;10.766;2023-03-05T08:59:04;1.70;1.00
3701;DHT22;1866;48.374;10.766;2023-03-05T09:01:32;1.80;1.00
3701;DHT22;1866;48.374;10.766;2023-03-05T09:04:01;1.80;1.00
3701;DHT22;1866;48.374;10.766;2023-03-05T09:06:29;1.80;1.00
3701;DHT22;1866;48.374;10.766;2023-03-05T09:08:56;1.90;1.00
3701;DHT22;1866;48.374;10.766;2023-03-05T09:11:24;1.80;1.00
3701;DHT22;1866;48.374;10.766;2023-03-05T09:13:52;1.80;1.00
3701;DHT22;1866;48.374;10.766;2023-03-05T09:16:21;1.80;1.00
3701;DHT22;1866;48.374;10.766;2023-03-05T09:18:47;1.80;1.00
3701;DHT22;1866;48.374;10.766;2023-03-05T09:21:15;1.80;1.00
3701;DHT22;1866;48.374;10.766;2023-03-05T09:23:43;1.90;1.00
3701;DHT22;1866;48.374;10.766;2023-03-05T09:26:13;1.90;1.00
3701;DHT22;1866;48.374;10.766;2023-03-05T09:28:44;2.00;1.00
3701;DHT22;1866;48.374;10.766;2023-03-05T09:31:12;2.00;1.00
3701;DHT22;1866;48.374;10.766;2023-03-05T09:33:42;2.00;1.00
3701;DHT22;1866;48.374;10.766;2023-03-05T09:36:20;1.90;1.00
3701;DHT22;1866;48.374;10.766;2023-03-05T09:38:48;1.90;1.00
3701;DHT22;1866;48.374;10.766;2023-03-05T09:41:20;1.90;1.00
3701;DHT22;1866;48.374;10.766;2023-03-05T09:44:00;2.00;1.00
3701;DHT22;1866;48.374;10.766;2023-03-05T09:46:38;1.90;1.00
3701;DHT22;1866;48.374;10.766;2023-03-05T09:49:15;2.00;1.00
3701;DHT22;1866;48.374;10.766;2023-03-05T09:51:45;2.10;1.00
3701;DHT22;1866;48.374;10.766;2023-03-05T09:54:18;2.20;1.00
3701;DHT22;1866;48.374;10.766;2023-03-05T09:56:47;2.10;1.00
3701;DHT22;1866;48.374;10.766;2023-03-05T09:59:26;2.20;1.00
3701;DHT22;1866;48.374;10.766;2023-03-05T10:01:59;2.20;1.00
3701;DHT22;1866;48.374;10.766;2023-03-05T10:04:40;2.20;1.00
3701;DHT22;1866;48.374;10.766;2023-03-05T10:07:14;2.30;1.00
3701;DHT22;1866;48.374;10.766;2023-03-05T10:09:44;2.10;1.00
3701;DHT22;1866;48.374;10.766;2023-03-05T10:12:19;2.30;1.00
3701;DHT22;1866;48.374;10.766;2023-03-05T10:14:54;2.30;1.00
3701;DHT22;1866;48.374;10.766;2023-03-05T10:17:34;2.30;1.00
3701;DHT22;1866;48.374;10.766;2023-03-05T10:20:27;2.40;1.00
3701;DHT22;1866;48.374;10.766;2023-03-05T10:23:14;2.40;1.00
3701;DHT22;1866;48.374;10.766;2023-03-05T10:25:53;2.40;1.00
3701;DHT22;1866;48.374;10.766;2023-03-05T10:28:33;2.50;1.00
3701;DHT22;1866;48.374;10.766;2023-03-05T10:31:09;2.50;1.00
3701;DHT22;1866;48.374;10.766;2023-03-05T10:33:48;2.50;1.00
3701;DHT22;1866;48.374;10.766;2023-03-05T10:36:30;2.60;1.00
3701;DHT22;1866;48.374;10.766;2023-03-05T10:39:35;2.60;1.00
3701;DHT22;1866;48.374;10.766;2023-03-05T10:42:10;2.70;1.00
3701;DHT22;1866;48.374;10.766;2023-03-05T10:44:43;2.80;1.00
3701;DHT22;1866;48.374;10.766;2023-03-05T10:47:15;2.80;1.00
3701;DHT22;1866;48.374;10.766;2023-03-05T10:49:50;2.80;1.00
3701;DHT22;1866;48.374;10.766;2023-03-05T10:52:19;2.80;1.00
3701;DHT22;1866;48.374;10.766;2023-03-05T10:54:49;3.00;1.00
3701;DHT22;1866;48.374;10.766;2023-03-05T10:57:18;3.00;1.00
3701;DHT22;1866;48.374;10.766;2023-03-05T10:59:48;2.80;1.00
3701;DHT22;1866;48.374;10.766;2023-03-05T11:02:17;2.80;1.00
3701;DHT22;1866;48.374;10.766;2023-03-05T11:04:48;3.00;1.00
3701;DHT22;1866;48.374;10.766;2023-03-05T11:07:35;2.80;1.00
3701;DHT22;1866;48.374;10.766;2023-03-05T11:10:21;3.00;1.00
3701;DHT22;1866;48.374;10.766;2023-03-05T11:12:48;3.00;1.00
3701;DHT22;1866;48.374;10.766;2023-03-05T11:15:28;3.10;1.00
3701;DHT22;1866;48.374;10.766;2023-03-05T11:18:18;3.00;1.00
3701;DHT22;1866;48.374;10.766;2023-03-05T11:20:47;3.10;1.00
3701;DHT22;1866;48.374;10.766;2023-03-05T11:23:17;3.10;1.00
3701;DHT22;1866;48.374;10.766;2023-03-05T11:25:54;3.00;1.00
3701;DHT22;1866;48.374;10.766;2023-03-05T11:28:24;2.90;1.00
3701;DHT22;1866;48.374;10.766;2023-03-05T11:31:00;3.10;1.00
3701;DHT22;1866;48.374;10.766;2023-03-05T11:33:34;3.10;1.00
3701;DHT22;1866;48.374;10.766;2023-03-05T11:36:21;3.10;1.00
3701;DHT22;1866;48.374;10.766;2023-03-05T11:38:56;3.10;1.00
3701;DHT22;1866;48.374;10.766;2023-03-05T11:41:35;3.10;1.00
3701;DHT22;1866;48.374;10.766;2023-03-05T11:44:10;3.20;1.00
3701;DHT22;1866;48.374;10.766;2023-03-05T11:46:43;3.30;1.00
3701;DHT22;1866;48.374;10.766;2023-03-05T11:49:22;3.30;1.00
3701;DHT22;1866;48.374;10.766;2023-03-05T11:52:00;3.40;1.00
3701;DHT22;1866;48.374;10.766;2023-03-05T11:54:43;3.50;1.00
3701;DHT22;1866;48.374;10.766;2023-03-05T11:57:45;3.30;1.00
3701;DHT22;1866;48.374;10.766;2023-03-05T12:00:26;3.30;1.00
3701;DHT22;1866;48.374;10.766;2023-03-05T12:03:06;3.30;1.00
3701;DHT22;1866;48.374;10.766;2023-03-05T12:05:57;3.50;1.00
3701;DHT22;1866;48.374;10.766;2023-03-05T12:08:31;3.40;1.00
3701;DHT22;1866;48.374;10.766;2023-03-05T12:11:31;3.50;1.00
3701;DHT22;1866;48.374;10.766;2023-03-05T12:14:09;3.70;1.00
3701;DHT22;1866;48.374;10.766;2023-03-05T12:16:46;3.70;1.00
3701;DHT22;1866;48.374;10.766;2023-03-05T12:19:36;3.50;1.00
3701;DHT22;1866;48.374;10.766;2023-03-05T12:22:40;3.60;1.00
3701;DHT22;1866;48.374;10.766;2023-03-05T12:25:26;3.60;1.00
3701;DHT22;1866;48.374;10.766;2023-03-05T12:28:02;3.50;1.00
3701;DHT22;1866;48.374;10.766;2023-03-05T12:31:04;3.50;1.00
3701;DHT22;1866;48.374;10.766;2023-03-05T12:33:35;3.70;1.00
3701;DHT22;1866;48.374;10.766;2023-03-05T12:36:35;3.80;1.00
3701;DHT22;1866;48.374;10.766;2023-03-05T12:42:55;3.80;1.00
3701;DHT22;1866;48.374;10.766;2023-03-05T12:45:39;3.90;1.00
3701;DHT22;1866;48.374;10.766;2023-03-05T12:48:42;4.00;1.00
3701;DHT22;1866;48.374;10.766;2023-03-05T12:51:14;3.80;1.00
3701;DHT22;1866;48.374;10.766;2023-03-05T12:54:26;3.60;1.00
3701;DHT22;1866;48.374;10.766;2023-03-05T13:00:16;3.60;1.00
3701;DHT22;1866;48.374;10.766;2023-03-05T13:02:50;3.50;1.00
3701;DHT22;1866;48.374;10.766;2023-03-05T13:05:35;3.60;1.00
3701;DHT22;1866;48.374;10.766;2023-03-05T13:08:19;3.50;1.00
3701;DHT22;1866;48.374;10.766;2023-03-05T13:10:52;3.60;1.00
3701;DHT22;1866;48.374;10.766;2023-03-05T13:13:48;3.60;1.00
3701;DHT22;1866;48.374;10.766;2023-03-05T13:16:19;3.70;1.00
3701;DHT22;1866;48.374;10.766;2023-03-05T13:19:15;3.70;1.00
3701;DHT22;1866;48.374;10.766;2023-03-05T13:21:57;3.60;1.00
3701;DHT22;1866;48.374;10.766;2023-03-05T13:27:46;3.70;1.00
3701;DHT22;1866;48.374;10.766;2023-03-05T13:30:26;3.70;1.00
3701;DHT22;1866;48.374;10.766;2023-03-05T13:33:17;3.60;1.00
3701;DHT22;1866;48.374;10.766;2023-03-05T13:35:50;3.60;1.00
3701;DHT22;1866;48.374;10.766;2023-03-05T13:38:25;3.50;1.00
3701;DHT22;1866;48.374;10.766;2023-03-05T13:41:03;3.50;1.00
3701;DHT22;1866;48.374;10.766;2023-03-05T13:43:47;3.50;1.00
3701;DHT22;1866;48.374;10.766;2023-03-05T13:46:30;3.50;1.00
3701;DHT22;1866;48.374;10.766;2023-03-05T13:49:31;3.60;1.00
3701;DHT22;1866;48.374;10.766;2023-03-05T13:51:59;3.60;1.00
3701;DHT22;1866;48.374;10.766;2023-03-05T13:54:28;3.60;1.00
3701;DHT22;1866;48.374;10.766;2023-03-05T13:57:00;3.60;1.00
3701;DHT22;1866;48.374;10.766;2023-03-05T13:59:28;3.60;1.00
3701;DHT22;1866;48.374;10.766;2023-03-05T14:01:57;3.60;1.00
3701;DHT22;1866;48.374;10.766;2023-03-05T14:04:26;3.50;1.00
3701;DHT22;1866;48.374;10.766;2023-03-05T14:06:58;3.60;1.00
3701;DHT22;1866;48.374;10.766;2023-03-05T14:09:26;3.60;1.00
3701;DHT22;1866;48.374;10.766;2023-03-05T14:11:58;3.60;1.00
3701;DHT22;1866;48.374;10.766;2023-03-05T14:14:27;3.60;1.00
3701;DHT22;1866;48.374;10.766;2023-03-05T14:17:19;3.50;1.00
3701;DHT22;1866;48.374;10.766;2023-03-05T14:19:48;3.60;1.00
3701;DHT22;1866;48.374;10.766;2023-03-05T14:22:30;3.60;1.00
3701;DHT22;1866;48.374;10.766;2023-03-05T14:24:57;3.60;1.00
3701;DHT22;1866;48.374;10.766;2023-03-05T14:27:35;3.60;1.00
3701;DHT22;1866;48.374;10.766;2023-03-05T14:30:03;3.60;1.00
3701;DHT22;1866;48.374;10.766;2023-03-05T14:32:32;3.60;1.00
3701;DHT22;1866;48.374;10.766;2023-03-05T14:35:01;3.60;1.00
3701;DHT22;1866;48.374;10.766;2023-03-05T14:37:33;3.60;1.00
3701;DHT22;1866;48.374;10.766;2023-03-05T14:40:02;3.60;1.00
3701;DHT22;1866;48.374;10.766;2023-03-05T14:42:32;3.60;1.00
3701;DHT22;1866;48.374;10.766;2023-03-05T14:45:09;3.60;1.00
3701;DHT22;1866;48.374;10.766;2023-03-05T14:47:37;3.50;1.00
3701;DHT22;1866;48.374;10.766;2023-03-05T14:50:05;3.50;1.00
3701;DHT22;1866;48.374;10.766;2023-03-05T14:52:34;3.50;1.00
3701;DHT22;1866;48.374;10.766;2023-03-05T14:55:01;3.40;1.00
3701;DHT22;1866;48.374;10.766;2023-03-05T14:57:30;3.50;1.00
3701;DHT22;1866;48.374;10.766;2023-03-05T14:59:58;3.40;1.00
3701;DHT22;1866;48.374;10.766;2023-03-05T15:02:25;3.40;1.00
3701;DHT22;1866;48.374;10.766;2023-03-05T15:04:53;3.40;1.00
3701;DHT22;1866;48.374;10.766;2023-03-05T15:07:24;3.40;1.00
3701;DHT22;1866;48.374;10.766;2023-03-05T15:09:53;3.30;1.00
3701;DHT22;1866;48.374;10.766;2023-03-05T15:12:20;3.30;1.00
3701;DHT22;1866;48.374;10.766;2023-03-05T15:14:53;3.30;1.00
3701;DHT22;1866;48.374;10.766;2023-03-05T15:17:24;3.30;1.00
3701;DHT22;1866;48.374;10.766;2023-03-05T15:19:51;3.30;1.00
3701;DHT22;1866;48.374;10.766;2023-03-05T15:22:23;3.30;1.00
3701;DHT22;1866;48.374;10.766;2023-03-05T15:24:50;3.30;1.00
3701;DHT22;1866;48.374;10.766;2023-03-05T15:27:20;3.30;1.00
3701;DHT22;1866;48.374;10.766;2023-03-05T15:29:46;3.30;1.00
3701;DHT22;1866;48.374;10.766;2023-03-05T15:32:13;3.30;1.00
3701;DHT22;1866;48.374;10.766;2023-03-05T15:34:40;3.30;1.00
3701;DHT22;1866;48.374;10.766;2023-03-05T15:37:13;3.30;1.00
3701;DHT22;1866;48.374;10.766;2023-03-05T15:39:43;3.30;1.00
3701;DHT22;1866;48.374;10.766;2023-03-05T15:42:10;3.30;1.00
3701;DHT22;1866;48.374;10.766;2023-03-05T15:44:39;3.30;1.00
3701;DHT22;1866;48.374;10.766;2023-03-05T15:47:09;3.30;1.00
3701;DHT22;1866;48.374;10.766;2023-03-05T15:49:36;3.20;1.00
3701;DHT22;1866;48.374;10.766;2023-03-05T15:52:05;3.20;1.00
3701;DHT22;1866;48.374;10.766;2023-03-05T15:54:34;3.20;1.00
3701;DHT22;1866;48.374;10.766;2023-03-05T15:57:01;3.20;1.00
3701;DHT22;1866;48.374;10.766;2023-03-05T15:59:28;3.20;1.00
3701;DHT22;1866;48.374;10.766;2023-03-05T16:01:57;3.20;1.00
3701;DHT22;1866;48.374;10.766;2023-03-05T16:04:25;3.10;1.00
3701;DHT22;1866;48.374;10.766;2023-03-05T16:06:55;3.10;1.00
3701;DHT22;1866;48.374;10.766;2023-03-05T16:09:24;3.10;1.00
3701;DHT22;1866;48.374;10.766;2023-03-05T16:11:54;3.10;1.00
3701;DHT22;1866;48.374;10.766;2023-03-05T16:14:24;3.10;1.00
3701;DHT22;1866;48.374;10.766;2023-03-05T16:16:54;3.10;1.00
3701;DHT22;1866;48.374;10.766;2023-03-05T16:19:25;3.10;1.00
3701;DHT22;1866;48.374;10.766;2023-03-05T16:21:53;3.00;1.00
3701;DHT22;1866;48.374;10.766;2023-03-05T16:24:21;3.00;1.00
3701;DHT22;1866;48.374;10.766;2023-03-05T16:26:49;3.10;1.00
3701;DHT22;1866;48.374;10.766;2023-03-05T16:29:17;3.00;1.00
3701;DHT22;1866;48.374;10.766;2023-03-05T16:31:46;3.00;1.00
3701;DHT22;1866;48.374;10.766;2023-03-05T16:34:13;3.00;1.00
3701;DHT22;1866;48.374;10.766;2023-03-05T16:36:46;2.90;1.00
3701;DHT22;1866;48.374;10.766;2023-03-05T16:39:15;3.00;1.00
3701;DHT22;1866;48.374;10.766;2023-03-05T16:41:42;3.00;1.00
3701;DHT22;1866;48.374;10.766;2023-03-05T16:44:10;2.90;1.00
3701;DHT22;1866;48.374;10.766;2023-03-05T16:46:37;2.90;1.00
3701;DHT22;1866;48.374;10.766;2023-03-05T16:49:07;3.00;1.00
3701;DHT22;1866;48.374;10.766;2023-03-05T16:51:34;2.90;1.00
3701;DHT22;1866;48.374;10.766;2023-03-05T16:54:04;2.90;1.00